Time;durP1;ratioP1;P1;durP2;ratioP2;P2;SDS_P1;SDS_P2;PMS_P1;PMS_P2;Temp;Humidity;BMP_temperature;BMP_pressure;BME280_temperature;BME280_humidity;BME280_pressure;Samples;Min_cycle;Max_cycle;Signal;HPM_P1;HPM_P2
2023/01/18 11:05:03;;;;;;;6.43;3.42;;;;;;;4.25;66.33;97610.97;5088270;27;20548;-90
2023/01/18 11:07:34;;;;;;;5.30;3.78;;;;;;;4.32;66.31;97613.03;5070162;28;20207;-90
2023/01/18 11:10:26;;;;;;;5.53;3.05;;;;;;;4.35;65.57;97619.78;5061314;28;20823;-90
2023/01/18 11:13:31;;;;;;;;;;;;;;;;;;;;;
2023/01/18 11:16:36;;;;;;;4.35;2.80;;;;;;;4.20;64.97;97611.28;5058764;28;20215;-91
2023/01/18 11:19:20;;;;;;;5.18;2.55;;;;;;;4.10;64.33;97616.25;5074785;28;20181;-91
2023/01/18 11:22:24;;;;;;;4.35;3.00;;;;;;;4.07;63.77;97620.84;5053275;28;20190;-91
2023/01/18 11:25:05;;;;;;;4.40;2.53;;;;;;;4.06;64.13;97630.41;5043837;28;20752;-92
2023/01/18 11:27:40;;;;;;;4.88;2.72;;;;;;;3.99;64.03;97635.19;5038174;28;20618;-91
2023/01/18 11:30:45;;;;;;;2.40;2.15;;;;;;;3.97;64.03;97644.03;5052021;28;20181;-91
2023/01/18 11:33:20;;;;;;;2.45;2.25;;;;;;;3.98;63.85;97640.50;5050454;28;20661;-91
2023/01/18 11:35:52;;;;;;;3.38;2.80;;;;;;;4.02;63.66;97649.72;5056752;28;20648;-91
2023/01/18 11:38:32;;;;;;;4.25;2.90;;;;;;;4.09;63.73;97644.97;5053943;28;20550;-90
2023/01/18 11:41:21;;;;;;;5.05;2.85;;;;;;;4.17;63.98;97643.50;5048052;28;20178;-91
2023/01/18 11:44:21;;;;;;;4.97;4.00;;;;;;;4.23;63.84;97642.22;5039097;28;20181;-91
2023/01/18 11:47:08;;;;;;;;;;;;;;;;;;;;;
2023/01/18 11:50:07;;;;;;;5.50;3.55;;;;;;;4.37;63.83;97649.06;5042344;28;20276;-91
2023/01/18 11:53:23;;;;;;;5.22;4.72;;;;;;;4.46;63.69;97650.22;5058402;28;20359;-91
2023/01/18 11:56:16;;;;;;;6.57;4.40;;;;;;;4.50;63.79;97654.25;5036223;28;20201;-92
2023/01/18 11:58:42;;;;;;;6.07;3.33;;;;;;;4.56;63.68;97651.22;5037106;28;20178;-90
2023/01/18 12:01:46;;;;;;;4.65;3.65;;;;;;;4.61;63.79;97662.13;5044908;28;20179;-91
2023/01/18 12:04:34;;;;;;;5.80;4.25;;;;;;;4.57;64.17;97663.28;5038480;28;20543;-91
2023/01/18 12:07:45;;;;;;;4.38;3.38;;;;;;;4.56;64.47;97670.22;4987976;28;20311;-89
2023/01/18 12:10:33;;;;;;;3.40;2.90;;;;;;;4.59;64.34;97667.44;4991593;28;20187;-93
2023/01/18 12:13:27;;;;;;;6.97;3.28;;;;;;;4.57;64.40;97669.31;4974837;28;20650;-94
2023/01/18 12:16:52;;;;;;;4.55;3.97;;;;;;;4.58;64.62;97665.75;4965160;28;20180;-93
2023/01/18 12:19:48;;;;;;;3.55;3.03;;;;;;;4.58;64.09;97670.13;4948372;28;20216;-93
2023/01/18 12:23:12;;;;;;;4.65;3.25;;;;;;;4.62;64.18;97669.00;4967661;28;20902;-91
2023/01/18 12:26:05;;;;;;;;;;;;;;;;;;;;;
2023/01/18 12:29:16;;;;;;;3.47;3.13;;;;;;;4.63;64.22;97681.06;5000871;28;20205;-93
2023/01/18 12:32:47;;;;;;;6.35;3.03;;;;;;;4.63;64.28;97686.25;4995110;28;20676;-94
2023/01/18 12:35:15;;;;;;;8.00;3.50;;;;;;;4.66;64.02;97686.03;4993741;28;20200;-93
2023/01/18 12:38:13;;;;;;;;;;;;;;;;;;;;;
2023/01/18 12:40:50;;;;;;;3.92;2.47;;;;;;;4.68;63.83;97688.53;4979648;28;20727;-91
2023/01/18 12:43:32;;;;;;;6.07;3.03;;;;;;;4.70;63.75;97692.69;4980440;28;20196;-90
2023/01/18 12:46:14;;;;;;;5.78;3.58;;;;;;;4.76;63.51;97697.44;4978452;28;20192;-89
2023/01/18 12:48:59;;;;;;;4.47;2.88;;;;;;;4.75;63.13;97693.19;4973126;28;20299;-90
2023/01/18 12:51:57;;;;;;;3.78;3.30;;;;;;;4.75;63.31;97695.81;4981225;28;20633;-91
2023/01/18 12:54:44;;;;;;;6.32;2.95;;;;;;;4.78;62.60;97697.31;4981756;28;20675;-89
2023/01/18 12:57:16;;;;;;;5.40;3.45;;;;;;;4.88;63.04;97698.34;4977079;28;20855;-91
2023/01/18 13:00:06;;;;;;;5.20;3.50;;;;;;;5.00;62.56;97694.06;4970604;28;20188;-91
2023/01/18 13:02:33;;;;;;;4.40;3.97;;;;;;;5.08;62.47;97700.38;4979715;28;20180;-92
2023/01/18 13:05:05;;;;;;;5.32;3.35;;;;;;;5.05;61.66;97698.00;4982519;28;20204;-91
2023/01/18 13:08:10;;;;;;;;;;;;;;;;;;;;;
2023/01/18 13:10:46;;;;;;;4.97;4.20;;;;;;;5.04;61.93;97704.13;4980832;28;20311;-91
2023/01/18 13:13:37;;;;;;;;;;;;;;;;;;;;;
2023/01/18 13:16:16;;;;;;;4.18;3.50;;;;;;;4.96;61.71;97723.81;4979495;28;20729;-90
2023/01/18 13:19:05;;;;;;;6.85;4.80;;;;;;;4.90;62.26;97721.66;4973545;28;20780;-92
2023/01/18 13:22:39;;;;;;;;;;;;;;;;;;;;;
2023/01/18 13:25:35;;;;;;;4.55;3.40;;;;;;;4.78;62.57;97728.53;4977620;28;20184;-92
2023/01/18 13:28:15;;;;;;;8.50;5.15;;;;;;;4.75;62.40;97737.41;4975894;28;20342;-92
2023/01/18 13:31:09;;;;;;;;;;;;;;;;;;;;;
2023/01/18 13:33:48;;;;;;;8.00;4.20;;;;;;;4.69;62.59;97734.41;4974781;28;20191;-90
2023/01/18 13:36:37;;;;;;;;;;;;;;;;;;;;;
2023/01/18 13:39:58;;;;;;;3.65;3.35;;;;;;;4.64;63.25;97740.75;4983867;28;20188;-90
2023/01/18 14:02:12;;;;;;;;;;;;;;;;;;;;;
2023/01/18 14:18:03;;;;;;;;;;;;;;;;;;;;;
